Pagina principale
METAR-TAF:

METAR-TAF

Aeroporti :

Osijek, Croazia

Aeroporto di Osijek-Klisa

latitudine: 45-27N, longitudine: 018-48E, altezza: 88 m

Osservazione

Il bollettino è stato emesso 40 minuti fa, alle 11:30 UTC
Vento 3 kt da est/sud-est
Temperature 4°C
Umidità 100%
Pressione 1014 hPa
Visibilità: 3000 m
Cielo coperto ad un'altezza di 500 ft
foschia

METAR: LDOS 191130Z 12003KT 3000 BR OVC005 04/04 Q1014

Ora: 13:10 (12:10 UTC)

Previsione

Il bollettino è stato emesso 45 minuti fa, alle 11:25 UTC
Previsione valida dal 19 alle 12 UTC al 20 alle 12 UTC
Vento 2 kt da direzioni variabili
Visibilità: 3000 m
Nuvoloso ad un'altezza di 500 ft
foschia
Evoluzione graduale
dal 19 alle 12 UTC al 19 alle 14 UTC
Visibilità: 6000 m
Nubi sparse ad un'altezza di 1000 ft
Evoluzione graduale
dal 19 alle 19 UTC al 19 alle 21 UTC
Vento 8 kt da nord-ovest

TAF: LDOS 191125Z 1912/2012 VRB02KT 3000 BR BKN005 TX07/2011Z TN00/2001Z BECMG 1912/1914 6000 NSW SCT010 BECMG 1919/1921 31008KT

Osservazioni e previsioni meteorologiche di più di 4000 aeroporti (messaggi METAR e TAF).

Le stazioni disponibili sono rappresentate dai dischi gialli e rossi sulla carta.

Puntare il mouse per vedere il nome della stazione.

Clicca sopra per visualizzare le osservazioni e previsioni meteorologiche.

Per cambiare la mappa : fare clic sui pulsanti verdi con una croce nera per ingrandire, il pulsante verde con un trattino per diminuire, o sulla freccia verde per le mappe adiacenti.


METAR-TAF: